sensor_id;sensor_type;location;lat;lon;timestamp;pressure;altitude;pressure_sealevel;temperature;humidity
41688;BME280;27371;42.686;23.362;2023-05-09T00:00:13;165662.84;;;13.28;82.72
41688;BME280;27371;42.686;23.362;2023-05-09T00:02:39;165664.22;;;13.29;82.89
41688;BME280;27371;42.686;23.362;2023-05-09T00:05:05;165669.53;;;13.31;83.27
41688;BME280;27371;42.686;23.362;2023-05-09T00:07:32;165658.88;;;13.27;83.55
41688;BME280;27371;42.686;23.362;2023-05-09T00:09:59;165645.41;;;13.22;83.64
41688;BME280;27371;42.686;23.362;2023-05-09T00:12:25;165649.47;;;13.23;83.63
41688;BME280;27371;42.686;23.362;2023-05-09T00:14:51;165633.34;;;13.17;83.37
41688;BME280;27371;42.686;23.362;2023-05-09T00:17:22;165625.34;;;13.14;83.26
41688;BME280;27371;42.686;23.362;2023-05-09T00:19:48;165626.66;;;13.14;83.08
41688;BME280;27371;42.686;23.362;2023-05-09T00:22:18;165622.69;;;13.13;83.16
41688;BME280;27371;42.686;23.362;2023-05-09T00:24:46;165619.97;;;13.12;82.85
41688;BME280;27371;42.686;23.362;2023-05-09T00:27:12;165613.31;;;13.09;82.46
41688;BME280;27371;42.686;23.362;2023-05-09T00:29:37;165632.03;;;13.17;82.31
41688;BME280;27371;42.686;23.362;2023-05-09T00:32:03;165624.00;;;13.13;82.17
41688;BME280;27371;42.686;23.362;2023-05-09T00:34:28;165622.69;;;13.13;82.17
41688;BME280;27371;42.686;23.362;2023-05-09T00:36:54;165626.66;;;13.14;82.16
41688;BME280;27371;42.686;23.362;2023-05-09T00:39:20;165613.31;;;13.09;82.10
41688;BME280;27371;42.686;23.362;2023-05-09T00:41:45;165610.63;;;13.08;82.09
41688;BME280;27371;42.686;23.362;2023-05-09T00:44:11;165602.59;;;13.05;81.60
41688;BME280;27371;42.686;23.362;2023-05-09T00:46:37;165601.25;;;13.05;82.05
41688;BME280;27371;42.686;23.362;2023-05-09T00:49:04;165607.97;;;13.07;81.83
41688;BME280;27371;42.686;23.362;2023-05-09T00:51:30;165567.78;;;12.92;81.84
41688;BME280;27371;42.686;23.362;2023-05-09T00:53:57;165585.22;;;12.99;81.91
41688;BME280;27371;42.686;23.362;2023-05-09T00:56:22;165589.19;;;13.00;81.71
41688;BME280;27371;42.686;23.362;2023-05-09T00:58:48;165575.81;;;12.95;81.80
41688;BME280;27371;42.686;23.362;2023-05-09T01:01:14;165563.81;;;12.90;81.70
41688;BME280;27371;42.686;23.362;2023-05-09T01:03:41;165546.38;;;12.84;81.36
41688;BME280;27371;42.686;23.362;2023-05-09T01:06:26;165502.22;;;12.67;81.98
41688;BME280;27371;42.686;23.362;2023-05-09T01:09:18;165498.25;;;12.65;82.42
41688;BME280;27371;42.686;23.362;2023-05-09T01:17:22;165510.25;;;12.70;82.95
41688;BME280;27371;42.686;23.362;2023-05-09T01:20:32;165495.53;;;12.64;82.70
41688;BME280;27371;42.686;23.362;2023-05-09T01:22:44;165471.47;;;12.55;82.88
41688;BME280;27371;42.686;23.362;2023-05-09T01:28:07;165471.47;;;12.55;83.34
41688;BME280;27371;42.686;23.362;2023-05-09T01:30:36;165455.44;;;12.49;83.23
41688;BME280;27371;42.686;23.362;2023-05-09T01:33:05;165464.78;;;12.53;83.22
41688;BME280;27371;42.686;23.362;2023-05-09T01:35:35;165448.72;;;12.46;83.16
41688;BME280;27371;42.686;23.362;2023-05-09T01:38:09;165478.16;;;12.58;83.24
41688;BME280;27371;42.686;23.362;2023-05-09T01:40:36;165476.84;;;12.57;83.06
41688;BME280;27371;42.686;23.362;2023-05-09T01:43:06;165439.34;;;12.43;83.03
41688;BME280;27371;42.686;23.362;2023-05-09T01:45:35;165486.19;;;12.61;82.94
41688;BME280;27371;42.686;23.362;2023-05-09T01:48:03;165475.44;;;12.57;82.59
41688;BME280;27371;42.686;23.362;2023-05-09T01:50:31;165464.78;;;12.53;82.78
41688;BME280;27371;42.686;23.362;2023-05-09T01:52:59;165463.44;;;12.52;82.90
41688;BME280;27371;42.686;23.362;2023-05-09T01:55:27;165466.09;;;12.53;82.67
41688;BME280;27371;42.686;23.362;2023-05-09T01:57:54;165463.44;;;12.52;82.79
41688;BME280;27371;42.686;23.362;2023-05-09T02:00:21;165454.03;;;12.48;82.35
41688;BME280;27371;42.686;23.362;2023-05-09T02:02:48;165420.63;;;12.36;82.77
41688;BME280;27371;42.686;23.362;2023-05-09T02:05:14;165417.94;;;12.35;83.22
41688;BME280;27371;42.686;23.362;2023-05-09T02:07:41;165409.91;;;12.32;83.45
41688;BME280;27371;42.686;23.362;2023-05-09T02:10:09;165400.56;;;12.28;83.50
41688;BME280;27371;42.686;23.362;2023-05-09T02:12:35;165415.28;;;12.34;83.73
41688;BME280;27371;42.686;23.362;2023-05-09T02:15:01;165419.31;;;12.35;83.90
41688;BME280;27371;42.686;23.362;2023-05-09T02:17:26;165417.94;;;12.35;83.87
41688;BME280;27371;42.686;23.362;2023-05-09T02:19:55;165387.16;;;12.23;83.86
41688;BME280;27371;42.686;23.362;2023-05-09T02:22:20;165432.63;;;12.40;83.61
41688;BME280;27371;42.686;23.362;2023-05-09T02:24:46;165447.34;;;12.46;83.54
41688;BME280;27371;42.686;23.362;2023-05-09T02:27:12;165452.72;;;12.48;83.30
41688;BME280;27371;42.686;23.362;2023-05-09T02:29:47;165411.25;;;12.32;83.67
41688;BME280;27371;42.686;23.362;2023-05-09T02:32:17;165472.81;;;12.56;83.63
41688;BME280;27371;42.686;23.362;2023-05-09T02:34:45;165490.16;;;12.62;83.83
41688;BME280;27371;42.686;23.362;2023-05-09T02:37:12;165526.28;;;12.76;83.61
41688;BME280;27371;42.686;23.362;2023-05-09T02:39:38;165543.72;;;12.83;83.43
41688;BME280;27371;42.686;23.362;2023-05-09T02:42:06;165541.00;;;12.82;83.18
41688;BME280;27371;42.686;23.362;2023-05-09T02:44:32;165537.03;;;12.80;82.80
41688;BME280;27371;42.686;23.362;2023-05-09T02:47:02;165516.94;;;12.73;82.68
41688;BME280;27371;42.686;23.362;2023-05-09T02:49:27;165504.88;;;12.68;83.26
41688;BME280;27371;42.686;23.362;2023-05-09T02:51:53;165482.16;;;12.59;83.63
41688;BME280;27371;42.686;23.362;2023-05-09T02:54:18;165486.19;;;12.61;83.86
41688;BME280;27371;42.686;23.362;2023-05-09T02:56:44;165488.84;;;12.62;84.12
41688;BME280;27371;42.686;23.362;2023-05-09T02:59:09;165476.84;;;12.57;84.26
41688;BME280;27371;42.686;23.362;2023-05-09T03:01:36;165474.13;;;12.56;84.37
41688;BME280;27371;42.686;23.362;2023-05-09T03:04:02;165452.72;;;12.48;85.15
41688;BME280;27371;42.686;23.362;2023-05-09T03:06:28;165444.69;;;12.45;85.48
41688;BME280;27371;42.686;23.362;2023-05-09T03:08:53;165435.34;;;12.41;85.71
41688;BME280;27371;42.686;23.362;2023-05-09T03:11:19;165429.97;;;12.39;86.05
41688;BME280;27371;42.686;23.362;2023-05-09T03:13:45;165417.94;;;12.35;86.74
41688;BME280;27371;42.686;23.362;2023-05-09T03:16:15;165409.91;;;12.32;86.97
41688;BME280;27371;42.686;23.362;2023-05-09T03:18:41;165391.22;;;12.24;87.46
41688;BME280;27371;42.686;23.362;2023-05-09T03:21:09;165381.81;;;12.21;88.03
41688;BME280;27371;42.686;23.362;2023-05-09T03:23:35;165361.78;;;12.13;88.08
41688;BME280;27371;42.686;23.362;2023-05-09T03:26:00;165345.69;;;12.07;88.37
41688;BME280;27371;42.686;23.362;2023-05-09T03:28:27;165320.31;;;11.97;88.78
41688;BME280;27371;42.686;23.362;2023-05-09T03:30:53;165317.59;;;11.96;89.27
41688;BME280;27371;42.686;23.362;2023-05-09T03:33:18;165317.59;;;11.96;89.63
41688;BME280;27371;42.686;23.362;2023-05-09T03:35:44;165310.97;;;11.94;89.90
41688;BME280;27371;42.686;23.362;2023-05-09T03:38:09;165324.28;;;11.99;89.52
41688;BME280;27371;42.686;23.362;2023-05-09T03:40:35;165317.59;;;11.96;89.75
41688;BME280;27371;42.686;23.362;2023-05-09T03:43:00;165316.28;;;11.96;89.96
41688;BME280;27371;42.686;23.362;2023-05-09T03:45:26;165316.28;;;11.96;89.95
41688;BME280;27371;42.686;23.362;2023-05-09T03:47:51;165314.94;;;11.95;90.03
41688;BME280;27371;42.686;23.362;2023-05-09T03:50:17;165317.59;;;11.96;90.03
41688;BME280;27371;42.686;23.362;2023-05-09T03:52:42;165320.31;;;11.97;90.40
41688;BME280;27371;42.686;23.362;2023-05-09T03:55:08;165322.97;;;11.98;90.37
41688;BME280;27371;42.686;23.362;2023-05-09T03:57:35;165318.97;;;11.97;90.05
41688;BME280;27371;42.686;23.362;2023-05-09T04:00:01;165310.97;;;11.94;90.27
41688;BME280;27371;42.686;23.362;2023-05-09T04:02:27;165335.03;;;12.03;90.35
41688;BME280;27371;42.686;23.362;2023-05-09T04:04:53;165359.06;;;12.12;89.95
41688;BME280;27371;42.686;23.362;2023-05-09T04:07:19;165376.50;;;12.19;89.32
41688;BME280;27371;42.686;23.362;2023-05-09T04:09:45;165408.56;;;12.31;89.19
41688;BME280;27371;42.686;23.362;2023-05-09T04:12:10;165459.41;;;12.51;87.37
41688;BME280;27371;42.686;23.362;2023-05-09T04:14:37;165448.72;;;12.46;85.98
41688;BME280;27371;42.686;23.362;2023-05-09T04:17:02;165503.56;;;12.67;86.30
41688;BME280;27371;42.686;23.362;2023-05-09T04:19:31;165462.13;;;12.52;84.86
41688;BME280;27371;42.686;23.362;2023-05-09T04:21:56;165491.56;;;12.63;85.23
41688;BME280;27371;42.686;23.362;2023-05-09T04:24:22;165498.25;;;12.65;85.80
41688;BME280;27371;42.686;23.362;2023-05-09T04:26:48;165502.22;;;12.67;85.20
41688;BME280;27371;42.686;23.362;2023-05-09T04:29:13;165492.88;;;12.63;84.90
41688;BME280;27371;42.686;23.362;2023-05-09T04:31:39;165483.53;;;12.60;85.33
41688;BME280;27371;42.686;23.362;2023-05-09T04:34:04;165466.09;;;12.53;85.50
41688;BME280;27371;42.686;23.362;2023-05-09T04:36:30;165464.78;;;12.53;85.09
41688;BME280;27371;42.686;23.362;2023-05-09T04:38:58;165421.97;;;12.36;85.99
41688;BME280;27371;42.686;23.362;2023-05-09T04:41:23;165421.97;;;12.36;86.29
41688;BME280;27371;42.686;23.362;2023-05-09T04:43:49;165419.31;;;12.35;86.34
41688;BME280;27371;42.686;23.362;2023-05-09T04:46:16;165442.03;;;12.44;86.28
41688;BME280;27371;42.686;23.362;2023-05-09T04:48:41;165480.81;;;12.59;86.63
41688;BME280;27371;42.686;23.362;2023-05-09T04:51:07;165524.97;;;12.76;85.84
41688;BME280;27371;42.686;23.362;2023-05-09T04:53:32;165585.22;;;12.99;84.31
41688;BME280;27371;42.686;23.362;2023-05-09T04:55:58;165590.53;;;13.01;82.72
41688;BME280;27371;42.686;23.362;2023-05-09T04:58:24;165549.09;;;12.85;82.57
41688;BME280;27371;42.686;23.362;2023-05-09T05:00:51;165617.31;;;13.11;82.33
41688;BME280;27371;42.686;23.362;2023-05-09T05:03:17;165619.97;;;13.12;81.31
41688;BME280;27371;42.686;23.362;2023-05-09T05:05:42;165590.53;;;13.01;81.75
41688;BME280;27371;42.686;23.362;2023-05-09T05:08:08;165583.84;;;12.98;81.77
41688;BME280;27371;42.686;23.362;2023-05-09T05:10:33;165545.03;;;12.83;81.53
41688;BME280;27371;42.686;23.362;2023-05-09T05:12:59;165563.81;;;12.90;82.54
41688;BME280;27371;42.686;23.362;2023-05-09T05:15:24;165539.69;;;12.81;81.86
41688;BME280;27371;42.686;23.362;2023-05-09T05:17:51;165518.28;;;12.73;82.32
41688;BME280;27371;42.686;23.362;2023-05-09T05:20:17;165514.28;;;12.72;82.29
41688;BME280;27371;42.686;23.362;2023-05-09T05:22:42;165516.94;;;12.73;82.43
41688;BME280;27371;42.686;23.362;2023-05-09T05:25:08;165554.41;;;12.87;82.22
41688;BME280;27371;42.686;23.362;2023-05-09T05:27:33;165539.69;;;12.81;81.41
41688;BME280;27371;42.686;23.362;2023-05-09T05:29:59;165475.44;;;12.57;80.44
41688;BME280;27371;42.686;23.362;2023-05-09T05:32:24;165428.66;;;12.39;81.61
41688;BME280;27371;42.686;23.362;2023-05-09T05:34:50;165442.03;;;12.44;82.12
41688;BME280;27371;42.686;23.362;2023-05-09T05:37:15;165504.88;;;12.68;83.02
41688;BME280;27371;42.686;23.362;2023-05-09T05:39:41;165558.44;;;12.88;82.72
41688;BME280;27371;42.686;23.362;2023-05-09T05:42:07;165613.31;;;13.09;80.47
41688;BME280;27371;42.686;23.362;2023-05-09T05:44:32;165617.31;;;13.11;79.36
41688;BME280;27371;42.686;23.362;2023-05-09T05:46:58;165590.53;;;13.01;79.97
41688;BME280;27371;42.686;23.362;2023-05-09T05:49:23;165586.53;;;12.99;80.73
41688;BME280;27371;42.686;23.362;2023-05-09T05:51:49;165632.03;;;13.17;81.03
41688;BME280;27371;42.686;23.362;2023-05-09T05:54:15;165686.97;;;13.38;79.98
41688;BME280;27371;42.686;23.362;2023-05-09T05:56:41;165692.28;;;13.40;77.75
41688;BME280;27371;42.686;23.362;2023-05-09T05:59:06;165716.41;;;13.49;76.71
41688;BME280;27371;42.686;23.362;2023-05-09T06:01:32;165771.28;;;13.70;76.88
41688;BME280;27371;42.686;23.362;2023-05-09T06:03:57;165862.34;;;14.04;73.95
41688;BME280;27371;42.686;23.362;2023-05-09T06:06:25;165958.75;;;14.41;73.19
41688;BME280;27371;42.686;23.362;2023-05-09T06:08:51;165938.69;;;14.34;71.47
41688;BME280;27371;42.686;23.362;2023-05-09T06:11:17;165874.41;;;14.09;71.21
41688;BME280;27371;42.686;23.362;2023-05-09T06:13:43;165820.81;;;13.89;72.16
41688;BME280;27371;42.686;23.362;2023-05-09T06:16:08;165839.59;;;13.96;72.64
41688;BME280;27371;42.686;23.362;2023-05-09T06:18:37;165808.81;;;13.84;71.66
41688;BME280;27371;42.686;23.362;2023-05-09T06:21:07;165769.94;;;13.69;72.42
41688;BME280;27371;42.686;23.362;2023-05-09T06:23:32;165748.53;;;13.61;72.86
41688;BME280;27371;42.686;23.362;2023-05-09T06:25:58;165697.66;;;13.42;73.82
41688;BME280;27371;42.686;23.362;2023-05-09T06:28:24;165740.50;;;13.58;74.49
41688;BME280;27371;42.686;23.362;2023-05-09T06:30:50;165721.78;;;13.51;74.45
41688;BME280;27371;42.686;23.362;2023-05-09T06:33:15;165741.81;;;13.58;73.47
41688;BME280;27371;42.686;23.362;2023-05-09T06:35:41;165751.25;;;13.62;73.42
41688;BME280;27371;42.686;23.362;2023-05-09T06:38:06;165747.19;;;13.61;72.20
41688;BME280;27371;42.686;23.362;2023-05-09T06:40:32;165732.47;;;13.55;72.23
41688;BME280;27371;42.686;23.362;2023-05-09T06:43:00;165736.50;;;13.56;73.23
41688;BME280;27371;42.686;23.362;2023-05-09T06:45:26;165760.59;;;13.66;73.30
41688;BME280;27371;42.686;23.362;2023-05-09T06:47:51;165814.13;;;13.86;72.91
41688;BME280;27371;42.686;23.362;2023-05-09T06:50:17;165827.53;;;13.91;72.06
41688;BME280;27371;42.686;23.362;2023-05-09T06:52:42;165815.50;;;13.87;71.70
41688;BME280;27371;42.686;23.362;2023-05-09T06:55:08;165819.50;;;13.88;71.13
41688;BME280;27371;42.686;23.362;2023-05-09T06:57:34;165811.47;;;13.85;70.59
41688;BME280;27371;42.686;23.362;2023-05-09T07:00:00;165790.03;;;13.77;70.58
41688;BME280;27371;42.686;23.362;2023-05-09T07:02:25;165777.97;;;13.72;70.99
41688;BME280;27371;42.686;23.362;2023-05-09T07:04:51;165765.97;;;13.68;70.94
41688;BME280;27371;42.686;23.362;2023-05-09T07:07:16;165765.97;;;13.68;71.12
41688;BME280;27371;42.686;23.362;2023-05-09T07:09:42;165799.41;;;13.80;71.11
41688;BME280;27371;42.686;23.362;2023-05-09T07:12:07;165820.81;;;13.89;70.64
41688;BME280;27371;42.686;23.362;2023-05-09T07:14:33;165835.53;;;13.94;70.20
41688;BME280;27371;42.686;23.362;2023-05-09T07:16:58;165844.97;;;13.98;70.51
41688;BME280;27371;42.686;23.362;2023-05-09T07:19:24;165859.69;;;14.03;70.74
41688;BME280;27371;42.686;23.362;2023-05-09T07:21:49;165889.13;;;14.15;69.31
41688;BME280;27371;42.686;23.362;2023-05-09T07:24:15;165883.78;;;14.13;68.77
41688;BME280;27371;42.686;23.362;2023-05-09T07:26:40;165831.56;;;13.93;69.33
41688;BME280;27371;42.686;23.362;2023-05-09T07:29:06;165803.44;;;13.82;69.56
41688;BME280;27371;42.686;23.362;2023-05-09T07:31:31;165772.66;;;13.70;70.52
41688;BME280;27371;42.686;23.362;2023-05-09T07:33:57;165761.91;;;13.66;71.01
41688;BME280;27371;42.686;23.362;2023-05-09T07:36:23;165733.81;;;13.55;70.30
41688;BME280;27371;42.686;23.362;2023-05-09T07:38:48;165743.16;;;13.59;70.53
41688;BME280;27371;42.686;23.362;2023-05-09T07:41:17;165775.31;;;13.71;70.95
41688;BME280;27371;42.686;23.362;2023-05-09T07:43:42;165814.13;;;13.86;70.67
41688;BME280;27371;42.686;23.362;2023-05-09T07:46:08;165870.38;;;14.08;69.26
41688;BME280;27371;42.686;23.362;2023-05-09T07:48:33;165843.56;;;13.97;69.96
41688;BME280;27371;42.686;23.362;2023-05-09T07:50:59;165834.22;;;13.94;70.07
41688;BME280;27371;42.686;23.362;2023-05-09T07:53:24;165832.88;;;13.93;69.88
41688;BME280;27371;42.686;23.362;2023-05-09T07:55:50;165831.56;;;13.93;69.82
41688;BME280;27371;42.686;23.362;2023-05-09T07:58:16;165844.97;;;13.98;69.69
41688;BME280;27371;42.686;23.362;2023-05-09T08:00:42;165832.88;;;13.93;68.67
41688;BME280;27371;42.686;23.362;2023-05-09T08:03:07;165792.69;;;13.78;69.60
41688;BME280;27371;42.686;23.362;2023-05-09T08:05:33;165784.66;;;13.75;70.42
41688;BME280;27371;42.686;23.362;2023-05-09T08:07:58;165764.59;;;13.67;70.78
41688;BME280;27371;42.686;23.362;2023-05-09T08:10:24;165761.91;;;13.66;69.55
41688;BME280;27371;42.686;23.362;2023-05-09T08:12:51;165737.84;;;13.57;70.29
41688;BME280;27371;42.686;23.362;2023-05-09T08:15:17;165744.53;;;13.59;71.56
41688;BME280;27371;42.686;23.362;2023-05-09T08:17:42;165774.00;;;13.71;70.53
41688;BME280;27371;42.686;23.362;2023-05-09T08:20:08;165772.66;;;13.70;70.48
41688;BME280;27371;42.686;23.362;2023-05-09T08:22:37;165788.72;;;13.76;70.30
41688;BME280;27371;42.686;23.362;2023-05-09T08:25:03;165839.59;;;13.96;70.62
41688;BME280;27371;42.686;23.362;2023-05-09T08:27:29;165901.16;;;14.19;70.03
41688;BME280;27371;42.686;23.362;2023-05-09T08:29:54;165978.84;;;14.49;70.42
41688;BME280;27371;42.686;23.362;2023-05-09T08:32:20;166090.13;;;14.91;68.65
41688;BME280;27371;42.686;23.362;2023-05-09T08:34:45;166087.41;;;14.90;66.42
41688;BME280;27371;42.686;23.362;2023-05-09T08:37:11;166181.19;;;15.26;65.90
41688;BME280;27371;42.686;23.362;2023-05-09T08:39:36;166202.63;;;15.34;64.98
41688;BME280;27371;42.686;23.362;2023-05-09T08:42:03;166214.69;;;15.39;65.32
41688;BME280;27371;42.686;23.362;2023-05-09T08:44:29;166238.81;;;15.48;64.20
41688;BME280;27371;42.686;23.362;2023-05-09T08:47:00;166248.16;;;15.52;64.97
41688;BME280;27371;42.686;23.362;2023-05-09T08:49:26;166292.50;;;15.69;64.22
41688;BME280;27371;42.686;23.362;2023-05-09T08:51:53;166284.34;;;15.66;61.77
41688;BME280;27371;42.686;23.362;2023-05-09T08:54:20;166261.59;;;15.57;63.43
41688;BME280;27371;42.686;23.362;2023-05-09T08:56:46;166254.88;;;15.54;61.92
41688;BME280;27371;42.686;23.362;2023-05-09T08:59:12;166245.50;;;15.51;61.88
41688;BME280;27371;42.686;23.362;2023-05-09T09:01:39;166193.25;;;15.31;61.70
41688;BME280;27371;42.686;23.362;2023-05-09T09:04:06;166123.56;;;15.04;62.47
41688;BME280;27371;42.686;23.362;2023-05-09T09:06:35;166063.31;;;14.81;63.55
41688;BME280;27371;42.686;23.362;2023-05-09T09:09:01;166044.53;;;14.74;63.40
41688;BME280;27371;42.686;23.362;2023-05-09T09:11:30;166037.81;;;14.72;63.42
41688;BME280;27371;42.686;23.362;2023-05-09T09:14:00;166037.81;;;14.72;64.58
41688;BME280;27371;42.686;23.362;2023-05-09T09:16:28;166005.69;;;14.59;64.60
41688;BME280;27371;42.686;23.362;2023-05-09T09:18:54;166001.66;;;14.58;65.64
41688;BME280;27371;42.686;23.362;2023-05-09T09:21:20;166017.78;;;14.64;66.04
41688;BME280;27371;42.686;23.362;2023-05-09T09:23:48;165981.56;;;14.50;65.78
41688;BME280;27371;42.686;23.362;2023-05-09T09:26:13;166063.31;;;14.81;65.87
41688;BME280;27371;42.686;23.362;2023-05-09T09:28:41;166075.38;;;14.86;64.94
41688;BME280;27371;42.686;23.362;2023-05-09T09:31:26;166020.44;;;14.65;65.69
41688;BME280;27371;42.686;23.362;2023-05-09T09:33:59;165999.00;;;14.57;66.83
41688;BME280;27371;42.686;23.362;2023-05-09T09:36:26;166048.56;;;14.76;67.19
41688;BME280;27371;42.686;23.362;2023-05-09T09:38:58;166078.03;;;14.87;65.27
41688;BME280;27371;42.686;23.362;2023-05-09T09:41:30;166033.84;;;14.70;65.83
41688;BME280;27371;42.686;23.362;2023-05-09T09:43:55;166061.97;;;14.81;65.54
41688;BME280;27371;42.686;23.362;2023-05-09T09:46:21;166107.50;;;14.98;64.39
41688;BME280;27371;42.686;23.362;2023-05-09T09:48:46;166132.94;;;15.08;64.73
41688;BME280;27371;42.686;23.362;2023-05-09T09:51:19;166155.75;;;15.17;64.47
41688;BME280;27371;42.686;23.362;2023-05-09T09:53:45;166209.34;;;15.37;63.57
41688;BME280;27371;42.686;23.362;2023-05-09T09:56:11;166189.22;;;15.29;64.17
41688;BME280;27371;42.686;23.362;2023-05-09T09:58:37;166171.81;;;15.23;63.67
41688;BME280;27371;42.686;23.362;2023-05-09T10:01:09;166127.63;;;15.06;64.41
41688;BME280;27371;42.686;23.362;2023-05-09T10:03:39;166138.31;;;15.10;63.63
41688;BME280;27371;42.686;23.362;2023-05-09T10:06:09;166142.34;;;15.11;64.02
41688;BME280;27371;42.686;23.362;2023-05-09T10:08:35;166151.72;;;15.15;63.42
41688;BME280;27371;42.686;23.362;2023-05-09T10:11:00;166170.50;;;15.22;63.22
41688;BME280;27371;42.686;23.362;2023-05-09T10:13:27;166135.66;;;15.09;63.85
41688;BME280;27371;42.686;23.362;2023-05-09T10:15:53;166091.44;;;14.92;63.79
41688;BME280;27371;42.686;23.362;2023-05-09T10:18:24;166059.25;;;14.80;64.57
41688;BME280;27371;42.686;23.362;2023-05-09T10:20:52;166118.19;;;15.02;64.08
41688;BME280;27371;42.686;23.362;2023-05-09T10:23:18;166103.47;;;14.97;63.75
41688;BME280;27371;42.686;23.362;2023-05-09T10:25:48;166177.19;;;15.25;63.55
41688;BME280;27371;42.686;23.362;2023-05-09T10:28:21;166167.78;;;15.21;63.53
41688;BME280;27371;42.686;23.362;2023-05-09T10:30:58;166165.13;;;15.20;64.36
41688;BME280;27371;42.686;23.362;2023-05-09T10:33:30;166194.59;;;15.31;63.98
41688;BME280;27371;42.686;23.362;2023-05-09T10:35:59;166233.44;;;15.46;63.38
41688;BME280;27371;42.686;23.362;2023-05-09T10:38:26;166230.78;;;15.45;62.92
41688;BME280;27371;42.686;23.362;2023-05-09T10:40:55;166253.53;;;15.54;63.36
41688;BME280;27371;42.686;23.362;2023-05-09T10:43:22;166264.28;;;15.58;62.38
41688;BME280;27371;42.686;23.362;2023-05-09T10:45:49;166275.00;;;15.62;62.24
41688;BME280;27371;42.686;23.362;2023-05-09T10:48:16;166277.69;;;15.63;61.66
41688;BME280;27371;42.686;23.362;2023-05-09T10:50:44;166220.06;;;15.41;62.06
41688;BME280;27371;42.686;23.362;2023-05-09T10:53:10;166232.09;;;15.46;63.02
41688;BME280;27371;42.686;23.362;2023-05-09T10:55:54;166250.88;;;15.53;63.03
41688;BME280;27371;42.686;23.362;2023-05-09T10:58:29;166262.91;;;15.57;62.47
41688;BME280;27371;42.686;23.362;2023-05-09T11:00:58;166208.00;;;15.36;62.49
41688;BME280;27371;42.686;23.362;2023-05-09T11:03:25;166143.69;;;15.12;64.16
41688;BME280;27371;42.686;23.362;2023-05-09T11:05:53;166146.34;;;15.13;64.99
41688;BME280;27371;42.686;23.362;2023-05-09T11:10:50;166195.91;;;15.32;62.50
41688;BME280;27371;42.686;23.362;2023-05-09T11:13:21;166115.53;;;15.01;63.17
41688;BME280;27371;42.686;23.362;2023-05-09T11:18:16;165954.75;;;14.40;64.88
41688;BME280;27371;42.686;23.362;2023-05-09T11:20:43;166060.59;;;14.80;65.40
41688;BME280;27371;42.686;23.362;2023-05-09T11:23:09;166053.94;;;14.78;64.31
41688;BME280;27371;42.686;23.362;2023-05-09T11:25:40;166048.56;;;14.76;64.44
41688;BME280;27371;42.686;23.362;2023-05-09T11:28:06;166044.53;;;14.74;64.61
41688;BME280;27371;42.686;23.362;2023-05-09T11:30:39;166070.00;;;14.84;64.44
41688;BME280;27371;42.686;23.362;2023-05-09T11:33:05;166040.53;;;14.73;64.72
41688;BME280;27371;42.686;23.362;2023-05-09T11:35:32;166084.75;;;14.89;64.03
41688;BME280;27371;42.686;23.362;2023-05-09T11:38:03;166031.13;;;14.69;64.32
41688;BME280;27371;42.686;23.362;2023-05-09T11:40:30;165992.31;;;14.54;64.99
41688;BME280;27371;42.686;23.362;2023-05-09T11:42:57;165990.97;;;14.54;65.83
41688;BME280;27371;42.686;23.362;2023-05-09T11:45:30;166008.34;;;14.60;65.38
41688;BME280;27371;42.686;23.362;2023-05-09T11:47:56;166015.06;;;14.63;65.32
41688;BME280;27371;42.686;23.362;2023-05-09T11:50:21;166027.13;;;14.67;65.63
41688;BME280;27371;42.686;23.362;2023-05-09T11:52:47;166019.09;;;14.64;65.00
41688;BME280;27371;42.686;23.362;2023-05-09T11:55:15;166003.00;;;14.58;65.00
41688;BME280;27371;42.686;23.362;2023-05-09T11:57:48;166007.03;;;14.60;64.69
41688;BME280;27371;42.686;23.362;2023-05-09T12:00:17;165946.72;;;14.37;65.02
41688;BME280;27371;42.686;23.362;2023-05-09T12:02:44;166017.78;;;14.64;64.45
41688;BME280;27371;42.686;23.362;2023-05-09T12:05:12;166003.00;;;14.58;65.34
41688;BME280;27371;42.686;23.362;2023-05-09T12:07:38;166013.72;;;14.62;64.80
41688;BME280;27371;42.686;23.362;2023-05-09T12:10:08;165993.63;;;14.55;65.51
41688;BME280;27371;42.686;23.362;2023-05-09T12:12:46;166000.34;;;14.57;65.63
41688;BME280;27371;42.686;23.362;2023-05-09T12:15:12;165993.63;;;14.55;65.37
41688;BME280;27371;42.686;23.362;2023-05-09T12:17:39;165956.09;;;14.40;65.67
41688;BME280;27371;42.686;23.362;2023-05-09T12:20:06;165878.41;;;14.11;66.43
41688;BME280;27371;42.686;23.362;2023-05-09T12:22:33;165882.44;;;14.12;66.53
41688;BME280;27371;42.686;23.362;2023-05-09T12:25:00;165869.03;;;14.07;66.88
41688;BME280;27371;42.686;23.362;2023-05-09T12:27:30;165844.97;;;13.98;67.41
41688;BME280;27371;42.686;23.362;2023-05-09T12:29:58;165820.81;;;13.89;67.93
41688;BME280;27371;42.686;23.362;2023-05-09T12:32:24;165816.84;;;13.87;68.15
41688;BME280;27371;42.686;23.362;2023-05-09T12:34:56;165790.03;;;13.77;68.03
41688;BME280;27371;42.686;23.362;2023-05-09T12:37:22;165739.16;;;13.57;68.79
41688;BME280;27371;42.686;23.362;2023-05-09T12:40:09;165688.31;;;13.38;70.00
41688;BME280;27371;42.686;23.362;2023-05-09T12:42:42;165674.91;;;13.33;69.71
41688;BME280;27371;42.686;23.362;2023-05-09T12:45:09;165598.56;;;13.04;70.33
41688;BME280;27371;42.686;23.362;2023-05-09T12:47:34;165598.56;;;13.04;71.47
41688;BME280;27371;42.686;23.362;2023-05-09T12:50:04;165553.06;;;12.86;72.36
41688;BME280;27371;42.686;23.362;2023-05-09T12:52:37;165538.34;;;12.81;72.49